createdAt,value
2023-01-05T00:01:04.641Z,15.55
2023-01-05T00:03:32.890Z,14.77
2023-01-05T00:06:05.164Z,13.70
2023-01-05T00:08:37.000Z,14.38
2023-01-05T00:11:38.117Z,13.15
2023-01-05T00:14:26.049Z,16.52
2023-01-05T00:17:12.173Z,15.90
2023-01-05T00:19:58.432Z,13.43
2023-01-05T00:22:34.716Z,15.60
2023-01-05T00:25:12.232Z,14.90
2023-01-05T00:27:45.523Z,13.23
2023-01-05T00:30:15.353Z,13.95
2023-01-05T00:32:43.652Z,14.65
2023-01-05T00:35:12.334Z,13.60
2023-01-05T00:37:40.488Z,14.18
2023-01-05T00:40:10.700Z,14.13
2023-01-05T00:42:38.472Z,11.77
2023-01-05T00:45:07.442Z,15.52
2023-01-05T00:47:34.940Z,16.48
2023-01-05T00:50:02.639Z,13.55
2023-01-05T00:52:30.356Z,14.40
2023-01-05T00:54:57.759Z,15.20
2023-01-05T00:57:25.572Z,13.38
2023-01-05T00:59:53.629Z,15.00
2023-01-05T01:02:21.262Z,15.35
2023-01-05T01:04:49.717Z,17.15
2023-01-05T01:07:17.358Z,18.48
2023-01-05T01:09:44.804Z,12.88
2023-01-05T01:12:12.298Z,13.82
2023-01-05T01:14:41.368Z,16.27
2023-01-05T01:17:08.780Z,15.88
2023-01-05T01:19:36.859Z,12.80
2023-01-05T01:22:04.866Z,15.32
2023-01-05T01:24:33.574Z,15.30
2023-01-05T01:27:00.949Z,14.35
2023-01-05T01:29:29.610Z,17.15
2023-01-05T01:31:56.972Z,15.88
2023-01-05T01:34:24.655Z,18.73
2023-01-05T01:36:55.634Z,15.75
2023-01-05T01:39:23.713Z,14.65
2023-01-05T01:41:51.709Z,14.07
2023-01-05T01:44:47.657Z,15.80
2023-01-05T01:47:33.698Z,17.40
2023-01-05T01:50:05.789Z,16.30
2023-01-05T01:52:33.762Z,18.95
2023-01-05T01:55:02.488Z,14.85
2023-01-05T01:57:30.112Z,13.20
2023-01-05T01:59:59.507Z,15.40
2023-01-05T02:02:28.578Z,14.13
2023-01-05T02:05:00.339Z,15.35
2023-01-05T02:07:30.294Z,16.42
2023-01-05T02:09:58.077Z,14.82
2023-01-05T02:12:53.450Z,18.60
2023-01-05T02:15:40.170Z,17.33
2023-01-05T02:18:27.714Z,14.10
2023-01-05T02:21:16.736Z,15.13
2023-01-05T02:24:18.877Z,15.93
2023-01-05T02:27:05.529Z,11.45
2023-01-05T02:29:52.252Z,14.48
2023-01-05T02:32:23.206Z,15.73
2023-01-05T02:34:56.687Z,14.95
2023-01-05T02:37:28.169Z,13.88
2023-01-05T02:40:05.506Z,14.63
2023-01-05T02:42:35.813Z,14.45
2023-01-05T02:45:07.743Z,16.27
2023-01-05T02:47:38.416Z,15.35
2023-01-05T02:50:11.193Z,17.23
2023-01-05T02:52:42.873Z,18.42
2023-01-05T02:55:13.637Z,17.02
2023-01-05T02:57:48.460Z,17.25
2023-01-05T03:00:38.382Z,17.10
2023-01-05T03:03:22.068Z,21.87
2023-01-05T03:05:56.374Z,17.15
2023-01-05T03:08:32.447Z,17.05
2023-01-05T03:11:22.330Z,18.80
2023-01-05T03:14:20.691Z,17.42
2023-01-05T03:16:50.193Z,18.15
2023-01-05T03:19:38.463Z,15.30
2023-01-05T03:22:34.105Z,16.70
2023-01-05T03:25:22.504Z,17.95
2023-01-05T03:28:10.044Z,17.35
2023-01-05T03:31:05.542Z,16.80
2023-01-05T03:34:01.986Z,17.35
2023-01-05T03:36:31.389Z,17.15
2023-01-05T03:39:01.030Z,18.33
2023-01-05T03:41:31.017Z,16.58
2023-01-05T03:43:58.973Z,17.40
2023-01-05T03:46:28.032Z,17.45
2023-01-05T03:48:55.511Z,15.23
2023-01-05T03:51:23.729Z,18.23
2023-01-05T03:53:51.196Z,18.08
2023-01-05T03:56:18.786Z,16.15
2023-01-05T03:58:46.558Z,15.48
2023-01-05T04:01:14.632Z,15.88
2023-01-05T04:03:43.180Z,14.02
2023-01-05T04:06:11.567Z,14.00
2023-01-05T04:08:39.355Z,16.25
2023-01-05T04:11:14.969Z,15.07
2023-01-05T04:13:44.553Z,14.95
2023-01-05T04:16:12.893Z,14.73
2023-01-05T04:18:41.097Z,16.45
2023-01-05T04:21:09.973Z,17.35
2023-01-05T04:23:38.405Z,18.48
2023-01-05T04:26:06.015Z,16.75
2023-01-05T04:28:33.842Z,14.32
2023-01-05T04:31:01.984Z,17.67
2023-01-05T04:33:30.185Z,16.17
2023-01-05T04:35:58.508Z,15.43
2023-01-05T04:38:26.528Z,16.15
2023-01-05T04:40:54.132Z,16.90
2023-01-05T04:43:24.173Z,17.40
2023-01-05T04:45:51.935Z,16.42
2023-01-05T04:48:19.662Z,16.80
2023-01-05T04:50:53.650Z,14.93
2023-01-05T04:53:23.318Z,14.07
2023-01-05T04:55:51.748Z,16.65
2023-01-05T04:58:20.631Z,16.27
2023-01-05T05:00:49.794Z,18.83
2023-01-05T05:03:17.900Z,16.02
2023-01-05T05:05:45.476Z,20.12
2023-01-05T05:08:14.435Z,18.87
2023-01-05T05:10:41.912Z,19.10
2023-01-05T05:13:09.416Z,18.10
2023-01-05T05:15:38.597Z,19.87
2023-01-05T05:18:09.423Z,23.25
2023-01-05T05:20:41.833Z,21.87
2023-01-05T05:23:09.588Z,19.90
2023-01-05T05:25:37.622Z,21.25
2023-01-05T05:28:05.563Z,16.90
2023-01-05T05:30:32.997Z,14.07
2023-01-05T05:33:00.652Z,13.73
2023-01-05T05:35:28.028Z,15.13
2023-01-05T05:37:56.902Z,14.18
2023-01-05T05:40:26.268Z,13.98
2023-01-05T05:42:54.151Z,13.70
2023-01-05T05:45:21.509Z,10.65
2023-01-05T05:47:49.158Z,17.80
2023-01-05T05:50:16.697Z,10.40
2023-01-05T05:52:47.315Z,10.82
2023-01-05T05:55:15.046Z,11.00
2023-01-05T05:57:42.456Z,14.57
2023-01-05T06:00:10.443Z,11.55
2023-01-05T06:02:40.223Z,14.98
2023-01-05T06:05:08.438Z,12.57
2023-01-05T06:07:35.864Z,13.65
2023-01-05T06:10:03.330Z,14.10
2023-01-05T06:12:31.098Z,13.45
2023-01-05T06:14:58.599Z,14.25
2023-01-05T06:17:26.001Z,13.88
2023-01-05T06:19:53.848Z,15.60
2023-01-05T06:22:21.307Z,15.43
2023-01-05T06:24:48.716Z,14.87
2023-01-05T06:27:16.403Z,14.23
2023-01-05T06:29:43.848Z,15.73
2023-01-05T06:32:11.202Z,20.65
2023-01-05T06:34:38.866Z,21.80
2023-01-05T06:37:06.514Z,26.75
2023-01-05T06:39:33.958Z,22.90
2023-01-05T06:42:01.775Z,24.58
2023-01-05T06:44:29.171Z,32.50
2023-01-05T06:46:56.594Z,29.63
2023-01-05T06:49:24.284Z,28.00
2023-01-05T06:51:51.781Z,26.30
2023-01-05T06:54:19.145Z,27.90
2023-01-05T06:56:46.832Z,27.45
2023-01-05T06:59:14.257Z,23.60
2023-01-05T07:01:41.729Z,26.60
2023-01-05T07:04:09.591Z,24.27
2023-01-05T07:06:37.050Z,23.77
2023-01-05T07:09:04.462Z,24.83
2023-01-05T07:11:32.182Z,23.67
2023-01-05T07:13:59.606Z,23.27
2023-01-05T07:16:27.032Z,22.90
2023-01-05T07:18:54.894Z,23.83
2023-01-05T07:21:22.273Z,19.87
2023-01-05T07:23:49.640Z,23.27
2023-01-05T07:26:17.371Z,19.20
2023-01-05T07:28:44.813Z,27.77
2023-01-05T07:31:12.365Z,27.05
2023-01-05T07:33:40.533Z,36.47
2023-01-05T07:36:08.655Z,27.42
2023-01-05T07:38:36.068Z,23.75
2023-01-05T07:41:04.069Z,24.67
2023-01-05T07:43:31.495Z,22.73
2023-01-05T07:46:03.774Z,23.80
2023-01-05T07:48:31.585Z,22.45
2023-01-05T07:51:03.327Z,20.15
2023-01-05T07:53:34.662Z,27.35
2023-01-05T07:56:06.966Z,23.17
2023-01-05T07:58:34.351Z,26.15
2023-01-05T08:01:10.105Z,31.58
2023-01-05T08:03:38.013Z,34.83
2023-01-05T08:06:09.099Z,30.75
2023-01-05T08:08:36.577Z,40.60
2023-01-05T08:11:05.877Z,39.15
2023-01-05T08:13:52.411Z,43.50
2023-01-05T08:16:20.432Z,37.45
2023-01-05T08:18:48.107Z,29.92
2023-01-05T08:21:15.846Z,31.42
2023-01-05T08:23:45.849Z,26.10
2023-01-05T08:26:15.984Z,34.58
2023-01-05T08:28:44.245Z,25.83
2023-01-05T08:31:16.341Z,23.42
2023-01-05T08:36:13.786Z,21.90
2023-01-05T08:38:50.365Z,21.83
2023-01-05T08:41:22.078Z,23.15
2023-01-05T08:43:54.161Z,20.90
2023-01-05T08:46:23.827Z,22.83
2023-01-05T08:48:53.554Z,17.15
2023-01-05T08:51:21.089Z,17.37
2023-01-05T08:53:49.429Z,17.60
2023-01-05T08:56:16.924Z,21.55
2023-01-05T08:58:44.664Z,19.55
2023-01-05T09:01:15.121Z,23.52
2023-01-05T09:03:42.969Z,20.12
2023-01-05T09:06:12.489Z,14.02
2023-01-05T09:08:41.836Z,13.65
2023-01-05T09:11:14.765Z,12.23
2023-01-05T09:13:49.763Z,11.10
2023-01-05T09:16:42.451Z,13.25
2023-01-05T09:19:07.185Z,13.18
2023-01-05T09:21:34.692Z,9.13
2023-01-05T09:24:02.077Z,14.00
2023-01-05T09:26:29.785Z,12.90
2023-01-05T09:28:57.145Z,11.63
2023-01-05T09:31:24.578Z,19.60
2023-01-05T09:33:52.333Z,15.50
2023-01-05T09:36:19.791Z,22.62
2023-01-05T09:38:51.402Z,12.02
2023-01-05T09:41:28.731Z,10.77
2023-01-05T09:43:59.307Z,11.10
2023-01-05T09:46:35.410Z,10.95
2023-01-05T09:49:05.350Z,9.63
2023-01-05T09:51:33.478Z,8.45
2023-01-05T09:54:01.579Z,7.43
2023-01-05T09:59:26.453Z,8.88
2023-01-05T10:01:56.205Z,9.50
2023-01-05T10:04:30.584Z,11.32
2023-01-05T10:07:08.068Z,11.90
2023-01-05T10:09:39.152Z,14.57
2023-01-05T10:12:28.530Z,15.38
2023-01-05T10:15:00.997Z,13.82
2023-01-05T10:17:41.245Z,15.55
2023-01-05T10:20:33.122Z,13.93
2023-01-05T10:23:13.761Z,11.07
2023-01-05T10:26:24.763Z,9.82
2023-01-05T10:29:16.026Z,6.18
2023-01-05T10:31:47.082Z,6.50
2023-01-05T10:34:25.162Z,4.30
2023-01-05T10:37:27.120Z,4.70
2023-01-05T10:39:57.872Z,7.97
2023-01-05T10:42:46.419Z,5.93
2023-01-05T10:45:15.449Z,3.25
2023-01-05T10:47:45.313Z,7.07
2023-01-05T10:50:32.095Z,5.40
2023-01-05T10:53:02.023Z,4.85
2023-01-05T10:55:30.238Z,6.00
2023-01-05T10:57:57.628Z,8.38
2023-01-05T11:00:40.408Z,9.57
2023-01-05T11:05:39.690Z,5.40
2023-01-05T11:08:22.145Z,4.37
2023-01-05T11:10:50.877Z,6.22
2023-01-05T11:13:27.514Z,9.60
2023-01-05T11:15:59.785Z,12.98
2023-01-05T11:19:01.802Z,12.15
2023-01-05T11:21:35.398Z,11.95
2023-01-05T11:24:03.836Z,12.90
2023-01-05T11:26:36.900Z,11.43
2023-01-05T11:29:10.347Z,11.65
2023-01-05T11:31:44.961Z,13.93
2023-01-05T11:34:27.651Z,12.32
2023-01-05T11:37:07.401Z,9.57
2023-01-05T11:39:47.535Z,7.43
2023-01-05T11:42:25.047Z,9.02
2023-01-05T11:45:05.462Z,5.90
2023-01-05T11:47:44.855Z,7.05
2023-01-05T11:50:22.035Z,7.32
2023-01-05T11:52:55.072Z,10.00
2023-01-05T11:55:38.269Z,8.10
2023-01-05T11:58:12.243Z,6.93
2023-01-05T12:01:01.632Z,7.28
2023-01-05T12:03:41.732Z,6.62
2023-01-05T12:06:45.882Z,8.52
2023-01-05T12:09:20.187Z,12.32
2023-01-05T12:11:57.175Z,10.88
2023-01-05T12:14:52.782Z,8.88
2023-01-05T12:17:27.645Z,6.35
2023-01-05T12:20:37.404Z,8.80
2023-01-05T12:23:10.879Z,9.98
2023-01-05T12:25:56.882Z,6.15
2023-01-05T12:29:34.810Z,16.62
2023-01-05T12:35:07.669Z,4.55
2023-01-05T12:38:03.472Z,6.25
2023-01-05T12:41:09.245Z,6.95
2023-01-05T12:43:36.934Z,6.35
2023-01-05T12:46:23.501Z,6.05
2023-01-05T12:49:05.165Z,7.57
2023-01-05T12:52:13.680Z,6.25
2023-01-05T12:54:50.054Z,6.03
2023-01-05T12:57:25.024Z,8.05
2023-01-05T12:59:53.391Z,9.25
2023-01-05T13:02:37.095Z,8.13
2023-01-05T13:05:14.372Z,8.32
2023-01-05T13:07:47.745Z,8.57
2023-01-05T13:10:45.702Z,7.40
2023-01-05T13:13:15.379Z,6.85
2023-01-05T13:15:50.830Z,6.22
2023-01-05T13:18:19.231Z,8.82
2023-01-05T13:20:53.664Z,11.25
2023-01-05T13:23:25.527Z,7.50
2023-01-05T13:26:00.168Z,8.73
2023-01-05T13:28:29.999Z,12.45
2023-01-05T13:31:16.162Z,18.98
2023-01-05T13:34:22.278Z,10.80
2023-01-05T13:37:11.555Z,11.32
2023-01-05T13:39:50.915Z,7.62
2023-01-05T13:42:32.979Z,10.95
2023-01-05T13:45:09.085Z,10.38
2023-01-05T13:47:49.252Z,9.48
2023-01-05T13:50:45.873Z,7.72
2023-01-05T13:55:57.809Z,15.43
2023-01-05T13:58:46.235Z,12.13
2023-01-05T14:01:16.266Z,13.05
2023-01-05T14:03:50.702Z,7.28
2023-01-05T14:06:27.426Z,8.57
2023-01-05T14:11:32.392Z,10.77
2023-01-05T14:14:20.143Z,8.32
2023-01-05T14:16:48.721Z,6.18
2023-01-05T14:22:21.893Z,5.62
2023-01-05T14:24:49.822Z,6.30
2023-01-05T14:27:24.561Z,7.10
2023-01-05T14:29:52.392Z,8.93
2023-01-05T14:32:28.430Z,11.35
2023-01-05T14:37:36.497Z,7.60
2023-01-05T14:40:18.224Z,5.95
2023-01-05T14:42:47.967Z,9.60
2023-01-05T14:45:22.762Z,6.07
2023-01-05T14:47:52.783Z,6.40
2023-01-05T14:50:43.829Z,5.57
2023-01-05T14:53:14.440Z,6.32
2023-01-05T14:56:03.372Z,6.75
2023-01-05T14:58:33.569Z,5.75
2023-01-05T15:01:19.137Z,14.27
2023-01-05T15:04:11.662Z,8.70
2023-01-05T15:09:21.955Z,22.92
2023-01-05T15:12:23.942Z,15.63
2023-01-05T15:14:54.527Z,14.82
2023-01-05T15:17:30.978Z,8.63
2023-01-05T15:20:13.415Z,6.65
2023-01-05T15:23:03.655Z,9.35
2023-01-05T15:25:30.917Z,5.95
2023-01-05T15:28:17.326Z,4.30
2023-01-05T15:30:53.266Z,7.03
2023-01-05T15:33:30.524Z,8.75
2023-01-05T15:36:02.063Z,8.50
2023-01-05T15:38:30.782Z,9.10
2023-01-05T15:41:09.561Z,11.40
2023-01-05T15:43:39.595Z,6.85
2023-01-05T15:46:07.450Z,9.57
2023-01-05T15:48:38.505Z,8.13
2023-01-05T15:51:06.505Z,8.63
2023-01-05T15:53:38.077Z,8.52
2023-01-05T15:56:27.083Z,6.78
2023-01-05T15:58:54.522Z,8.80
2023-01-05T16:01:22.339Z,5.80
2023-01-05T16:03:50.480Z,5.85
2023-01-05T16:06:22.507Z,8.85
2023-01-05T16:08:52.362Z,6.75
2023-01-05T16:11:32.513Z,5.28
2023-01-05T16:14:04.616Z,7.50
2023-01-05T16:16:51.990Z,8.20
2023-01-05T16:19:28.013Z,7.12
2023-01-05T16:22:12.732Z,5.10
2023-01-05T16:24:51.814Z,5.18
2023-01-05T16:27:19.387Z,6.53
2023-01-05T16:29:48.502Z,5.57
2023-01-05T16:32:30.737Z,6.97
2023-01-05T16:35:33.075Z,5.20
2023-01-05T16:38:09.733Z,7.10
2023-01-05T16:41:03.500Z,9.75
2023-01-05T16:43:41.529Z,11.52
2023-01-05T16:46:16.655Z,4.90
2023-01-05T16:48:48.175Z,5.68
2023-01-05T16:51:21.625Z,8.15
2023-01-05T16:53:55.414Z,9.02
2023-01-05T16:56:57.842Z,9.15
2023-01-05T16:59:47.743Z,8.90
2023-01-05T17:02:38.493Z,10.57
2023-01-05T17:05:06.819Z,9.52
2023-01-05T17:07:38.249Z,14.15
2023-01-05T17:10:07.605Z,7.95
2023-01-05T17:12:35.349Z,9.48
2023-01-05T17:15:05.769Z,7.57
2023-01-05T17:17:33.455Z,6.28
2023-01-05T17:20:01.147Z,5.85
2023-01-05T17:22:29.005Z,6.25
2023-01-05T17:24:56.479Z,7.65
2023-01-05T17:27:24.221Z,7.18
2023-01-05T17:29:53.207Z,6.35
2023-01-05T17:32:20.733Z,7.18
2023-01-05T17:34:48.417Z,4.32
2023-01-05T17:37:16.632Z,4.62
2023-01-05T17:39:44.081Z,4.47
2023-01-05T17:42:30.023Z,4.50
2023-01-05T17:44:57.413Z,3.78
2023-01-05T17:47:25.065Z,6.80
2023-01-05T17:49:52.471Z,3.20
2023-01-05T17:52:19.837Z,5.57
2023-01-05T17:54:47.595Z,5.70
2023-01-05T17:57:15.048Z,5.20
2023-01-05T17:59:44.607Z,3.90
2023-01-05T18:02:12.374Z,4.53
2023-01-05T18:04:40.247Z,4.68
2023-01-05T18:09:37.963Z,5.62
2023-01-05T18:12:06.042Z,10.07
2023-01-05T18:14:33.469Z,4.97
2023-01-05T18:17:00.945Z,7.32
2023-01-05T18:19:29.472Z,4.15
2023-01-05T18:21:58.978Z,4.00
2023-01-05T18:24:26.636Z,4.43
2023-01-05T18:26:55.903Z,4.95
2023-01-05T18:29:23.615Z,7.62
2023-01-05T18:31:50.977Z,6.70
2023-01-05T18:34:18.815Z,4.57
2023-01-05T18:36:47.318Z,6.78
2023-01-05T18:39:16.381Z,4.57
2023-01-05T18:41:44.349Z,6.78
2023-01-05T18:44:11.753Z,7.87
2023-01-05T18:46:39.253Z,6.70
2023-01-05T18:49:07.042Z,11.75
2023-01-05T18:51:34.457Z,5.82
2023-01-05T18:54:01.865Z,4.72
2023-01-05T18:56:29.573Z,5.00
2023-01-05T18:58:57.481Z,5.15
2023-01-05T19:01:25.361Z,5.07
2023-01-05T19:03:53.731Z,4.75
2023-01-05T19:06:25.828Z,4.35
2023-01-05T19:08:53.533Z,6.10
2023-01-05T19:11:26.052Z,4.15
2023-01-05T19:13:59.466Z,6.68
2023-01-05T19:16:29.514Z,7.75
2023-01-05T19:19:04.982Z,6.20
2023-01-05T19:21:34.071Z,5.72
2023-01-05T19:24:02.340Z,7.10
2023-01-05T19:26:32.040Z,6.65
2023-01-05T19:29:01.264Z,4.72
2023-01-05T19:31:30.334Z,5.35
2023-01-05T19:34:00.561Z,4.12
2023-01-05T19:36:32.372Z,4.53
2023-01-05T19:39:27.209Z,5.97
2023-01-05T19:41:54.844Z,5.57
2023-01-05T19:44:22.830Z,5.55
2023-01-05T19:46:53.175Z,6.78
2023-01-05T19:49:27.698Z,4.43
2023-01-05T19:51:55.839Z,5.32
2023-01-05T19:54:25.477Z,9.23
2023-01-05T19:56:54.666Z,5.62
2023-01-05T19:59:26.221Z,6.72
2023-01-05T20:01:56.099Z,4.53
2023-01-05T20:04:24.035Z,6.28
2023-01-05T20:06:51.445Z,5.22
2023-01-05T20:09:19.359Z,6.40
2023-01-05T20:11:49.171Z,3.90
2023-01-05T20:14:21.911Z,4.93
2023-01-05T20:16:55.430Z,3.53
2023-01-05T20:19:25.753Z,3.30
2023-01-05T20:21:54.874Z,5.65
2023-01-05T20:24:25.270Z,4.07
2023-01-05T20:26:55.895Z,4.00
2023-01-05T20:29:23.927Z,4.78
2023-01-05T20:31:54.405Z,2.25
2023-01-05T20:34:23.698Z,5.12
2023-01-05T20:36:51.283Z,7.07
2023-01-05T20:39:22.051Z,4.75
2023-01-05T20:41:51.534Z,7.15
2023-01-05T20:44:21.678Z,3.20
2023-01-05T20:46:50.469Z,3.85
2023-01-05T20:49:18.312Z,5.30
2023-01-05T20:51:46.105Z,4.85
2023-01-05T20:54:14.256Z,5.30
2023-01-05T20:56:43.712Z,6.20
2023-01-05T20:59:14.062Z,8.15
2023-01-05T21:01:42.095Z,6.40
2023-01-05T21:04:09.535Z,7.68
2023-01-05T21:06:37.200Z,6.68
2023-01-05T21:09:05.532Z,7.40
2023-01-05T21:11:32.913Z,4.55
2023-01-05T21:14:00.998Z,5.90
2023-01-05T21:16:36.240Z,5.25
2023-01-05T21:19:05.546Z,6.37
2023-01-05T21:21:34.489Z,5.40
2023-01-05T21:24:02.759Z,3.40
2023-01-05T21:26:30.188Z,4.30
2023-01-05T21:28:57.877Z,4.87
2023-01-05T21:31:26.064Z,3.15
2023-01-05T21:33:54.356Z,4.22
2023-01-05T21:36:24.700Z,4.90
2023-01-05T21:39:03.565Z,3.37
2023-01-05T21:41:51.063Z,3.83
2023-01-05T21:44:18.796Z,4.15
2023-01-05T21:46:47.443Z,2.78
2023-01-05T21:49:15.060Z,5.82
2023-01-05T21:52:01.615Z,2.92
2023-01-05T21:54:48.416Z,6.25
2023-01-05T21:57:15.884Z,3.90
2023-01-05T21:59:43.773Z,4.82
2023-01-05T22:02:11.784Z,6.32
2023-01-05T22:04:39.596Z,4.72
2023-01-05T22:07:07.443Z,4.90
2023-01-05T22:09:35.668Z,5.03
2023-01-05T22:12:07.182Z,3.10
2023-01-05T22:14:36.234Z,3.87
2023-01-05T22:17:05.525Z,2.83
2023-01-05T22:19:33.259Z,3.83
2023-01-05T22:22:00.664Z,5.37
2023-01-05T22:24:29.941Z,4.97
2023-01-05T22:26:57.296Z,3.45
2023-01-05T22:29:25.176Z,3.62
2023-01-05T22:31:52.989Z,5.65
2023-01-05T22:34:20.537Z,2.72
2023-01-05T22:36:49.013Z,5.37
2023-01-05T22:39:17.210Z,4.40
2023-01-05T22:41:46.407Z,4.68
2023-01-05T22:44:13.884Z,3.55
2023-01-05T22:46:41.690Z,5.22
2023-01-05T22:49:13.027Z,4.55
2023-01-05T22:51:44.699Z,2.65
2023-01-05T22:54:12.399Z,5.20
2023-01-05T22:56:40.038Z,5.00
2023-01-05T22:59:07.941Z,3.97
2023-01-05T23:01:43.111Z,4.10
2023-01-05T23:04:11.616Z,5.18
2023-01-05T23:06:39.391Z,4.78
2023-01-05T23:09:09.302Z,1.75
2023-01-05T23:11:39.276Z,3.22
2023-01-05T23:14:08.714Z,4.75
2023-01-05T23:16:36.586Z,3.37
2023-01-05T23:19:05.683Z,5.10
2023-01-05T23:21:33.343Z,4.75
2023-01-05T23:24:00.990Z,3.20
2023-01-05T23:26:29.040Z,4.07
2023-01-05T23:28:56.711Z,3.65
2023-01-05T23:31:24.409Z,5.55
2023-01-05T23:33:52.079Z,3.28
2023-01-05T23:36:20.449Z,5.47
2023-01-05T23:38:48.334Z,3.72
2023-01-05T23:41:17.351Z,2.90
2023-01-05T23:43:45.785Z,3.25
2023-01-05T23:46:20.103Z,3.42
2023-01-05T23:48:49.130Z,3.85
2023-01-05T23:51:18.213Z,3.72
2023-01-05T23:53:48.345Z,2.83
2023-01-05T23:56:18.714Z,1.95
2023-01-05T23:58:47.072Z,2.47
